createdAt,value
2018-08-22T00:01:46.838Z,101221.48
2018-08-22T00:04:20.282Z,101235.34
2018-08-22T00:06:53.715Z,101232.02
2018-08-22T00:09:27.111Z,101226.72
2018-08-22T00:12:00.734Z,101222.67
2018-08-22T00:14:34.208Z,101229.87
2018-08-22T00:17:07.656Z,101228.12
2018-08-22T00:19:41.068Z,101227.22
2018-08-22T00:22:14.507Z,101227.00
2018-08-22T00:24:47.911Z,101227.45
2018-08-22T00:27:21.363Z,101225.77
2018-08-22T00:29:54.784Z,101221.62
2018-08-22T00:32:28.236Z,101222.52
2018-08-22T00:35:01.646Z,101221.41
2018-08-22T00:37:35.067Z,101224.15
2018-08-22T00:40:08.469Z,101228.34
2018-08-22T00:42:41.915Z,101224.15
2018-08-22T00:45:15.328Z,101224.29
2018-08-22T00:47:48.763Z,101227.39
2018-08-22T00:50:22.187Z,101224.06
2018-08-22T00:52:55.614Z,101223.67
2018-08-22T00:55:29.003Z,101222.33
2018-08-22T00:58:02.539Z,101224.66
2018-08-22T01:00:35.941Z,101223.45
2018-08-22T01:03:09.421Z,101219.67
2018-08-22T01:05:42.816Z,101219.45
2018-08-22T01:08:16.289Z,101214.78
2018-08-22T01:10:49.667Z,101214.83
2018-08-22T01:13:23.087Z,101216.22
2018-08-22T01:15:56.555Z,101210.24
2018-08-22T01:18:29.998Z,101210.00
2018-08-22T01:21:03.385Z,101213.55
2018-08-22T01:23:36.844Z,101207.73
2018-08-22T01:26:10.232Z,101208.03
2018-08-22T01:28:43.668Z,101207.05
2018-08-22T01:31:17.132Z,101208.39
2018-08-22T01:33:50.622Z,101208.78
2018-08-22T01:36:24.050Z,101205.00
2018-08-22T01:38:57.473Z,101201.96
2018-08-22T01:41:31.100Z,101202.83
2018-08-22T01:44:04.543Z,101199.92
2018-08-22T01:46:37.928Z,101192.28
2018-08-22T01:49:11.347Z,101196.22
2018-08-22T01:51:44.747Z,101194.19
2018-08-22T01:54:18.193Z,101193.48
2018-08-22T01:56:51.596Z,101186.22
2018-08-22T01:59:25.022Z,101191.39
2018-08-22T02:01:58.432Z,101188.97
2018-08-22T02:04:31.876Z,101181.73
2018-08-22T02:07:05.399Z,101181.67
2018-08-22T02:09:38.864Z,101175.25
2018-08-22T02:12:12.305Z,101180.81
2018-08-22T02:14:45.714Z,101178.71
2018-08-22T02:17:19.110Z,101181.78
2018-08-22T02:19:52.520Z,101175.36
2018-08-22T02:22:25.925Z,101184.88
2018-08-22T02:24:59.538Z,101181.20
2018-08-22T02:27:32.929Z,101182.06
2018-08-22T02:30:06.368Z,101187.15
2018-08-22T02:32:39.770Z,101184.13
2018-08-22T02:35:13.209Z,101179.91
2018-08-22T02:37:46.609Z,101175.66
2018-08-22T02:40:20.022Z,101173.30
2018-08-22T02:42:53.433Z,101168.17
2018-08-22T02:45:26.861Z,101169.56
2018-08-22T02:48:00.296Z,101169.52
2018-08-22T02:50:33.691Z,101172.92
2018-08-22T02:53:07.102Z,101171.71
2018-08-22T02:55:40.893Z,101169.59
2018-08-22T02:58:14.300Z,101166.18
2018-08-22T03:00:47.754Z,101162.41
2018-08-22T03:03:21.157Z,101162.14
2018-08-22T03:05:54.592Z,101160.16
2018-08-22T03:08:28.002Z,101160.16
2018-08-22T03:11:01.482Z,101156.84
2018-08-22T03:13:34.876Z,101157.36
2018-08-22T03:16:08.359Z,101157.88
2018-08-22T03:18:41.783Z,101159.28
2018-08-22T03:21:15.239Z,101152.05
2018-08-22T03:23:48.692Z,101147.05
2018-08-22T03:26:22.127Z,101141.06
2018-08-22T03:28:55.560Z,101149.72
2018-08-22T03:31:28.953Z,101149.22
2018-08-22T03:34:02.393Z,101145.88
2018-08-22T03:36:35.787Z,101147.17
2018-08-22T03:39:09.597Z,101141.25
2018-08-22T03:41:43.007Z,101142.95
2018-08-22T03:44:16.443Z,101135.24
2018-08-22T03:46:49.832Z,101131.91
2018-08-22T03:49:23.234Z,101131.12
2018-08-22T03:51:56.624Z,101123.02
2018-08-22T03:54:30.033Z,101129.00
2018-08-22T03:57:03.461Z,101132.73
2018-08-22T03:59:36.892Z,101123.94
2018-08-22T04:02:10.344Z,101126.95
2018-08-22T04:04:43.785Z,101129.18
2018-08-22T04:07:17.215Z,101121.44
2018-08-22T04:09:50.677Z,101126.56
2018-08-22T04:12:24.091Z,101124.45
2018-08-22T04:14:57.486Z,101123.61
2018-08-22T04:17:34.963Z,101129.25
2018-08-22T04:20:08.785Z,101128.41
2018-08-22T04:22:42.232Z,101128.17
2018-08-22T04:25:15.657Z,101126.31
2018-08-22T04:27:49.060Z,101132.72
2018-08-22T04:30:22.476Z,101137.41
2018-08-22T04:32:55.852Z,101137.41
2018-08-22T04:35:29.270Z,101133.89
2018-08-22T04:38:02.690Z,101129.97
2018-08-22T04:40:36.110Z,101124.77
2018-08-22T04:43:09.545Z,101130.30
2018-08-22T04:45:42.954Z,101128.23
2018-08-22T04:48:16.377Z,101132.09
2018-08-22T04:50:49.795Z,101131.23
2018-08-22T04:53:23.368Z,101130.37
2018-08-22T04:55:56.806Z,101131.65
2018-08-22T04:58:30.263Z,101135.09
2018-08-22T05:01:03.680Z,101128.87
2018-08-22T05:03:37.075Z,101141.08
2018-08-22T05:06:10.500Z,101133.23
2018-08-22T05:08:43.892Z,101127.58
2018-08-22T05:11:17.339Z,101130.33
2018-08-22T05:13:50.733Z,101130.55
2018-08-22T05:16:24.152Z,101131.56
2018-08-22T05:18:57.588Z,101124.80
2018-08-22T05:21:31.005Z,101130.39
2018-08-22T05:24:04.419Z,101131.27
2018-08-22T05:26:37.877Z,101139.05
2018-08-22T05:29:11.480Z,101135.05
2018-08-22T05:31:44.901Z,101140.52
2018-08-22T05:34:18.328Z,101139.20
2018-08-22T05:36:51.760Z,101144.26
2018-08-22T05:39:25.165Z,101142.90
2018-08-22T05:41:58.586Z,101140.75
2018-08-22T05:44:32.057Z,101139.47
2018-08-22T05:47:05.652Z,101143.17
2018-08-22T05:49:39.085Z,101131.39
2018-08-22T05:52:12.497Z,101134.22
2018-08-22T05:54:45.875Z,101132.80
2018-08-22T05:57:19.265Z,101130.55
2018-08-22T05:59:52.650Z,101122.73
2018-08-22T06:02:26.053Z,101133.19
2018-08-22T06:04:59.478Z,101137.67
2018-08-22T06:07:32.882Z,101138.02
2018-08-22T06:10:06.387Z,101127.81
2018-08-22T06:12:39.804Z,101129.19
2018-08-22T06:15:13.217Z,101128.98
2018-08-22T06:17:46.652Z,101123.95
2018-08-22T06:20:20.077Z,101128.33
2018-08-22T06:22:53.511Z,101123.86
2018-08-22T06:25:26.969Z,101120.66
2018-08-22T06:28:00.356Z,101122.42
2018-08-22T06:30:33.745Z,101119.10
2018-08-22T06:33:07.297Z,101119.30
2018-08-22T06:35:40.657Z,101116.22
2018-08-22T06:38:14.098Z,101117.55
2018-08-22T06:40:47.525Z,101112.25
2018-08-22T06:43:21.077Z,101116.32
2018-08-22T06:45:54.475Z,101105.95
2018-08-22T06:48:27.914Z,101106.15
2018-08-22T06:51:01.317Z,101099.47
2018-08-22T06:53:34.738Z,101105.23
2018-08-22T06:56:08.181Z,101098.72
2018-08-22T06:58:41.696Z,101091.86
2018-08-22T07:01:15.123Z,101097.17
2018-08-22T07:03:48.538Z,101098.41
2018-08-22T07:06:21.966Z,101094.48
2018-08-22T07:08:55.397Z,101091.92
2018-08-22T07:11:28.775Z,101090.77
2018-08-22T07:14:02.272Z,101087.06
2018-08-22T07:16:35.654Z,101096.09
2018-08-22T07:19:09.049Z,101095.20
2018-08-22T07:21:42.403Z,101095.86
2018-08-22T07:24:15.802Z,101089.73
2018-08-22T07:26:50.071Z,101091.90
2018-08-22T07:29:23.436Z,101095.31
2018-08-22T07:31:56.827Z,101091.61
2018-08-22T07:34:30.247Z,101088.00
2018-08-22T07:37:03.676Z,101091.05
2018-08-22T07:39:37.083Z,101084.77
2018-08-22T07:42:10.455Z,101091.21
2018-08-22T07:44:43.846Z,101094.68
2018-08-22T07:47:17.317Z,101083.05
2018-08-22T07:49:50.723Z,101083.39
2018-08-22T07:52:24.150Z,101081.83
2018-08-22T07:54:57.573Z,101078.44
2018-08-22T07:57:31.005Z,101079.22
2018-08-22T08:00:04.440Z,101077.27
2018-08-22T08:02:37.923Z,101078.06
2018-08-22T08:05:11.348Z,101072.97
2018-08-22T08:07:44.791Z,101077.33
2018-08-22T08:10:22.361Z,101073.59
2018-08-22T08:12:55.783Z,101068.58
2018-08-22T08:15:29.196Z,101063.41
2018-08-22T08:18:02.637Z,101061.64
2018-08-22T08:20:36.067Z,101065.12
2018-08-22T08:23:09.490Z,101059.81
2018-08-22T08:25:42.902Z,101062.00
2018-08-22T08:28:16.356Z,101054.63
2018-08-22T08:30:49.788Z,101050.70
2018-08-22T08:33:23.193Z,101046.45
2018-08-22T08:35:56.652Z,101045.77
2018-08-22T08:38:30.056Z,101047.88
2018-08-22T08:41:03.431Z,101049.23
2018-08-22T08:43:36.861Z,101038.71
2018-08-22T08:46:11.044Z,101035.00
2018-08-22T08:48:44.474Z,101033.14
2018-08-22T08:51:17.869Z,101034.03
2018-08-22T08:53:51.302Z,101031.32
2018-08-22T08:56:24.771Z,101032.66
2018-08-22T08:58:58.174Z,101032.38
2018-08-22T09:01:31.594Z,101025.82
2018-08-22T09:04:05.091Z,101026.33
2018-08-22T09:06:38.502Z,101024.33
2018-08-22T09:09:11.897Z,101022.34
2018-08-22T09:12:04.740Z,101016.59
2018-08-22T09:14:38.604Z,101010.94
2018-08-22T09:17:12.010Z,101009.87
2018-08-22T09:19:45.420Z,100999.95
2018-08-22T09:22:19.183Z,100997.89
2018-08-22T09:24:52.596Z,100993.44
2018-08-22T09:27:25.952Z,100994.20
2018-08-22T09:29:59.336Z,100992.93
2018-08-22T09:32:32.787Z,100987.22
2018-08-22T09:35:06.229Z,100985.42
2018-08-22T09:37:39.643Z,100978.78
2018-08-22T09:40:13.078Z,100982.17
2018-08-22T09:42:46.438Z,100981.94
2018-08-22T09:45:19.824Z,100976.34
2018-08-22T09:47:53.220Z,100971.14
2018-08-22T09:50:26.659Z,100971.44
2018-08-22T09:53:00.045Z,100969.72
2018-08-22T09:55:33.463Z,100964.97
2018-08-22T09:58:06.894Z,100965.70
2018-08-22T10:00:45.414Z,100957.00
2018-08-22T10:03:18.788Z,100958.00
2018-08-22T10:05:52.226Z,100953.78
2018-08-22T10:08:25.610Z,100951.14
2018-08-22T10:10:59.029Z,100950.20
2018-08-22T10:13:32.481Z,100948.41
2018-08-22T10:16:05.918Z,100944.95
2018-08-22T10:18:39.297Z,100940.45
2018-08-22T10:21:12.723Z,100939.70
2018-08-22T10:23:46.125Z,100937.48
2018-08-22T10:26:19.556Z,100936.42
2018-08-22T10:28:53.559Z,100924.66
2018-08-22T10:31:27.296Z,100926.34
2018-08-22T10:34:00.728Z,100923.42
2018-08-22T10:36:34.176Z,100921.16
2018-08-22T10:39:08.719Z,100914.89
2018-08-22T10:41:42.166Z,100912.98
2018-08-22T10:44:15.582Z,100909.09
2018-08-22T10:46:48.985Z,100913.11
2018-08-22T10:49:22.348Z,100907.58
2018-08-22T10:51:55.755Z,100909.02
2018-08-22T10:54:29.182Z,100899.50
2018-08-22T10:57:02.613Z,100896.64
2018-08-22T10:59:36.062Z,100898.55
2018-08-22T11:02:09.467Z,100898.56
2018-08-22T11:04:42.901Z,100889.39
2018-08-22T11:07:16.315Z,100887.44
2018-08-22T11:09:49.788Z,100889.26
2018-08-22T11:12:23.155Z,100885.88
2018-08-22T11:14:56.565Z,100878.47
2018-08-22T11:17:29.993Z,100876.63
2018-08-22T11:20:03.459Z,100875.02
2018-08-22T11:22:48.300Z,100877.31
2018-08-22T11:25:33.052Z,100877.41
2018-08-22T11:28:17.833Z,100864.53
2018-08-22T11:31:02.580Z,100869.74
2018-08-22T11:33:47.277Z,100861.81
2018-08-22T11:36:19.583Z,100857.10
2018-08-22T11:38:53.035Z,100856.64
2018-08-22T11:41:26.425Z,100859.02
2018-08-22T11:43:59.845Z,100856.78
2018-08-22T11:46:33.280Z,100854.74
2018-08-22T11:49:06.657Z,100847.13
2018-08-22T11:51:40.114Z,100860.88
2018-08-22T11:54:13.505Z,100851.50
2018-08-22T11:56:46.946Z,100848.44
2018-08-22T11:59:20.799Z,100841.26
2018-08-22T12:01:54.303Z,100843.87
2018-08-22T12:04:27.702Z,100845.61
2018-08-22T12:07:01.117Z,100835.11
2018-08-22T12:09:34.508Z,100831.20
2018-08-22T12:12:07.945Z,100831.87
2018-08-22T12:14:41.325Z,100827.13
2018-08-22T12:17:14.744Z,100824.69
2018-08-22T12:19:48.112Z,100821.88
2018-08-22T12:22:21.498Z,100806.26
2018-08-22T12:24:54.869Z,100817.77
2018-08-22T12:27:28.271Z,100817.88
2018-08-22T12:30:01.669Z,100803.27
2018-08-22T12:32:35.100Z,100806.55
2018-08-22T12:35:08.782Z,100804.50
2018-08-22T12:37:42.183Z,100799.16
2018-08-22T12:40:15.557Z,100798.89
2018-08-22T12:42:48.975Z,100792.06
2018-08-22T12:45:22.361Z,100784.52
2018-08-22T12:47:56.031Z,100788.00
2018-08-22T12:50:29.529Z,100779.98
2018-08-22T12:53:02.855Z,100779.89
2018-08-22T12:55:36.245Z,100767.78
2018-08-22T12:58:09.670Z,100770.19
2018-08-22T13:00:43.030Z,100774.80
2018-08-22T13:03:16.415Z,100773.36
2018-08-22T13:05:49.793Z,100760.94
2018-08-22T13:08:23.209Z,100765.56
2018-08-22T13:10:56.606Z,100762.20
2018-08-22T13:13:30.288Z,100757.25
2018-08-22T13:16:03.690Z,100762.69
2018-08-22T13:18:37.084Z,100761.05
2018-08-22T13:21:10.472Z,100753.84
2018-08-22T13:23:43.889Z,100752.20
2018-08-22T13:26:17.300Z,100751.39
2018-08-22T13:28:50.709Z,100741.86
2018-08-22T13:31:24.096Z,100742.27
2018-08-22T13:33:57.476Z,100738.70
2018-08-22T13:36:30.864Z,100740.68
2018-08-22T13:39:05.326Z,100736.80
2018-08-22T13:41:38.688Z,100735.22
2018-08-22T13:44:12.090Z,100728.33
2018-08-22T13:46:45.451Z,100724.98
2018-08-22T13:49:18.852Z,100722.41
2018-08-22T13:51:52.213Z,100726.25
2018-08-22T13:54:25.627Z,100720.78
2018-08-22T13:56:59.012Z,100724.45
2018-08-22T13:59:32.951Z,100715.26
2018-08-22T14:02:06.337Z,100716.44
2018-08-22T14:04:39.758Z,100718.58
2018-08-22T14:07:13.140Z,100713.61
2018-08-22T14:09:46.613Z,100710.98
2018-08-22T14:12:20.020Z,100712.28
2018-08-22T14:14:53.391Z,100708.20
2018-08-22T14:17:26.828Z,100704.00
2018-08-22T14:20:00.209Z,100707.51
2018-08-22T14:22:33.713Z,100698.80
2018-08-22T14:25:07.039Z,100696.75
2018-08-22T14:27:40.423Z,100704.34
2018-08-22T14:30:13.788Z,100702.98
2018-08-22T14:32:47.203Z,100696.38
2018-08-22T14:35:20.612Z,100696.23
2018-08-22T14:37:54.005Z,100693.93
2018-08-22T14:40:27.485Z,100693.25
2018-08-22T14:43:00.896Z,100687.34
2018-08-22T14:45:40.692Z,100689.76
2018-08-22T14:48:14.135Z,100678.52
2018-08-22T14:50:47.510Z,100679.53
2018-08-22T14:53:20.937Z,100678.83
2018-08-22T14:55:54.369Z,100677.87
2018-08-22T14:58:27.741Z,100673.87
2018-08-22T15:01:01.168Z,100670.77
2018-08-22T15:03:34.786Z,100665.03
2018-08-22T15:06:07.981Z,100665.88
2018-08-22T15:08:41.385Z,100667.06
2018-08-22T15:11:14.756Z,100663.45
2018-08-22T15:13:48.166Z,100658.84
2018-08-22T15:16:21.545Z,100664.11
2018-08-22T15:18:55.538Z,100661.69
2018-08-22T15:21:28.954Z,100655.05
2018-08-22T15:24:02.421Z,100650.36
2018-08-22T15:26:36.090Z,100656.95
2018-08-22T15:29:09.583Z,100651.05
2018-08-22T15:31:43.194Z,100651.66
2018-08-22T15:34:16.801Z,100651.58
2018-08-22T15:36:50.406Z,100648.86
2018-08-22T15:39:23.803Z,100644.53
2018-08-22T15:41:57.268Z,100640.58
2018-08-22T15:44:30.656Z,100640.96
2018-08-22T15:47:04.192Z,100637.81
2018-08-22T15:49:37.608Z,100635.20
2018-08-22T15:52:11.000Z,100635.20
2018-08-22T15:54:55.939Z,100631.42
2018-08-22T15:57:37.485Z,100623.03
2018-08-22T16:00:10.910Z,100621.88
2018-08-22T16:02:44.773Z,100621.08
2018-08-22T16:05:18.387Z,100615.98
2018-08-22T16:07:52.287Z,100619.91
2018-08-22T16:10:26.055Z,100617.85
2018-08-22T16:12:59.488Z,100616.07
2018-08-22T16:15:33.974Z,100611.11
2018-08-22T16:18:09.343Z,100611.41
2018-08-22T16:20:52.167Z,100606.91
2018-08-22T16:23:30.344Z,100601.92
2018-08-22T16:26:04.744Z,100606.69
2018-08-22T16:28:50.749Z,100603.17
2018-08-22T16:31:29.240Z,100604.47
2018-08-22T16:34:02.666Z,100594.96
2018-08-22T16:36:36.129Z,100600.98
2018-08-22T16:39:14.356Z,100601.67
2018-08-22T16:41:47.844Z,100588.00
2018-08-22T16:44:21.248Z,100590.45
2018-08-22T16:46:54.633Z,100588.02
2018-08-22T16:49:28.129Z,100589.50
2018-08-22T16:52:01.501Z,100585.53
2018-08-22T16:54:35.179Z,100592.41
2018-08-22T16:57:08.743Z,100588.72
2018-08-22T16:59:42.150Z,100590.17
2018-08-22T17:02:15.558Z,100583.76
2018-08-22T17:04:49.068Z,100579.95
2018-08-22T17:07:22.458Z,100576.47
2018-08-22T17:09:56.377Z,100580.47
2018-08-22T17:12:34.512Z,100579.37
2018-08-22T17:15:08.765Z,100582.72
2018-08-22T17:17:42.143Z,100576.07
2018-08-22T17:20:15.785Z,100581.58
2018-08-22T17:22:49.376Z,100575.58
2018-08-22T17:25:22.821Z,100582.36
2018-08-22T17:27:56.401Z,100578.67
2018-08-22T17:30:40.133Z,100571.65
2018-08-22T17:33:13.755Z,100567.28
2018-08-22T17:35:47.547Z,100566.17
2018-08-22T17:38:21.536Z,100568.75
2018-08-22T17:40:55.083Z,100567.19
2018-08-22T17:43:28.487Z,100566.96
2018-08-22T17:46:01.963Z,100563.53
2018-08-22T17:48:35.439Z,100557.73
2018-08-22T17:51:08.853Z,100558.23
2018-08-22T17:53:42.239Z,100560.80
2018-08-22T17:56:15.649Z,100557.62
2018-08-22T17:58:49.514Z,100555.55
2018-08-22T18:01:23.478Z,100560.23
2018-08-22T18:03:57.152Z,100557.48
2018-08-22T18:06:31.164Z,100556.47
2018-08-22T18:09:05.178Z,100559.36
2018-08-22T18:11:38.557Z,100560.97
2018-08-22T18:14:12.115Z,100554.51
2018-08-22T18:16:46.394Z,100552.97
2018-08-22T18:19:19.824Z,100561.86
2018-08-22T18:21:53.391Z,100559.59
2018-08-22T18:24:26.825Z,100557.55
2018-08-22T18:27:02.495Z,100566.62
2018-08-22T18:29:36.008Z,100570.05
2018-08-22T18:32:09.584Z,100574.01
2018-08-22T18:34:57.578Z,100567.33
2018-08-22T18:37:31.808Z,100571.77
2018-08-22T18:40:26.112Z,100573.70
2018-08-22T18:43:01.766Z,100574.93
2018-08-22T18:45:35.175Z,100574.00
2018-08-22T18:48:08.617Z,100581.73
2018-08-22T18:50:42.180Z,100579.74
2018-08-22T18:53:16.711Z,100584.41
2018-08-22T18:55:54.583Z,100586.91
2018-08-22T18:58:28.076Z,100588.29
2018-08-22T19:01:03.224Z,100589.13
2018-08-22T19:03:36.843Z,100590.55
2018-08-22T19:06:10.248Z,100588.40
2018-08-22T19:08:43.664Z,100592.08
2018-08-22T19:11:17.120Z,100593.46
2018-08-22T19:13:50.531Z,100589.13
2018-08-22T19:16:23.976Z,100589.80
2018-08-22T19:18:57.380Z,100593.58
2018-08-22T19:21:30.818Z,100594.98
2018-08-22T19:24:04.197Z,100592.34
2018-08-22T19:26:37.619Z,100597.64
2018-08-22T19:29:11.395Z,100591.43
2018-08-22T19:31:49.166Z,100587.95
2018-08-22T19:34:22.864Z,100591.59
2018-08-22T19:36:56.439Z,100595.34
2018-08-22T19:39:30.088Z,100593.95
2018-08-22T19:42:03.765Z,100594.61
2018-08-22T19:44:37.335Z,100589.97
2018-08-22T19:47:10.928Z,100587.23
2018-08-22T19:49:44.527Z,100592.09
2018-08-22T19:52:18.140Z,100588.72
2018-08-22T19:54:51.709Z,100588.42
2018-08-22T19:57:38.428Z,100588.36
2018-08-22T20:00:13.212Z,100590.16
2018-08-22T20:02:46.781Z,100585.22
2018-08-22T20:05:20.380Z,100585.98
2018-08-22T20:07:54.015Z,100578.34
2018-08-22T20:10:27.747Z,100581.61
2018-08-22T20:13:01.807Z,100582.22
2018-08-22T20:15:35.172Z,100584.34
2018-08-22T20:18:08.758Z,100587.34
2018-08-22T20:20:42.212Z,100580.13
2018-08-22T20:23:16.415Z,100585.52
2018-08-22T20:25:49.854Z,100579.42
2018-08-22T20:28:23.275Z,100583.23
2018-08-22T20:31:01.053Z,100580.83
2018-08-22T20:33:34.442Z,100577.83
2018-08-22T20:36:07.815Z,100581.00
2018-08-22T20:38:41.238Z,100585.84
2018-08-22T20:41:14.637Z,100581.86
2018-08-22T20:43:48.043Z,100591.52
2018-08-22T20:46:21.608Z,100582.84
2018-08-22T20:48:55.057Z,100584.68
2018-08-22T20:51:30.195Z,100590.34
2018-08-22T20:54:08.775Z,100589.59
2018-08-22T20:56:48.214Z,100590.66
2018-08-22T20:59:22.983Z,100592.59
2018-08-22T21:02:03.790Z,100590.21
2018-08-22T21:04:37.512Z,100587.41
2018-08-22T21:07:11.650Z,100579.24
2018-08-22T21:09:45.151Z,100578.31
2018-08-22T21:12:18.578Z,100575.54
2018-08-22T21:14:52.053Z,100584.98
2018-08-22T21:17:25.613Z,100583.69
2018-08-22T21:19:59.542Z,100586.20
2018-08-22T21:22:33.895Z,100588.69
2018-08-22T21:25:07.647Z,100587.39
2018-08-22T21:27:41.951Z,100577.77
2018-08-22T21:30:16.843Z,100582.38
2018-08-22T21:32:50.643Z,100586.08
2018-08-22T21:35:25.287Z,100587.36
2018-08-22T21:38:04.568Z,100583.58
2018-08-22T21:40:37.973Z,100589.47
2018-08-22T21:43:12.975Z,100588.16
2018-08-22T21:45:49.127Z,100583.50
2018-08-22T21:48:25.755Z,100582.08
2018-08-22T21:50:59.221Z,100586.02
2018-08-22T21:53:32.632Z,100584.28
2018-08-22T21:56:06.068Z,100585.58
2018-08-22T21:58:39.451Z,100584.52
2018-08-22T22:01:12.866Z,100587.09
2018-08-22T22:03:46.307Z,100586.42
2018-08-22T22:06:19.731Z,100579.76
2018-08-22T22:08:53.125Z,100580.33
2018-08-22T22:11:26.519Z,100584.58
2018-08-22T22:14:08.072Z,100583.15
2018-08-22T22:16:41.467Z,100581.26
2018-08-22T22:19:14.873Z,100577.08
2018-08-22T22:21:48.260Z,100574.29
2018-08-22T22:24:21.663Z,100576.05
2018-08-22T22:26:55.103Z,100565.13
2018-08-22T22:29:30.892Z,100571.53
2018-08-22T22:32:04.275Z,100572.43
2018-08-22T22:34:37.875Z,100562.54
2018-08-22T22:37:11.253Z,100569.67
2018-08-22T22:39:45.722Z,100574.39
2018-08-22T22:42:24.459Z,100572.73
2018-08-22T22:44:59.071Z,100573.72
2018-08-22T22:47:33.807Z,100573.63
2018-08-22T22:50:07.272Z,100569.97
2018-08-22T22:52:42.048Z,100570.23
2018-08-22T22:55:15.462Z,100559.78
2018-08-22T22:57:49.012Z,100557.62
2018-08-22T23:00:22.588Z,100563.42
2018-08-22T23:03:01.318Z,100562.86
2018-08-22T23:05:35.000Z,100562.78
2018-08-22T23:08:08.573Z,100554.26
2018-08-22T23:10:42.173Z,100555.34
2018-08-22T23:13:15.708Z,100554.00
2018-08-22T23:15:49.314Z,100556.38
2018-08-22T23:18:22.965Z,100551.93
2018-08-22T23:23:37.000Z,100552.87
2018-08-22T23:26:26.204Z,100552.93
2018-08-22T23:28:59.782Z,100545.73
2018-08-22T23:31:33.375Z,100544.97
2018-08-22T23:34:06.945Z,100544.75
2018-08-22T23:36:40.535Z,100539.63
2018-08-22T23:39:14.100Z,100534.30
2018-08-22T23:41:47.713Z,100538.70
2018-08-22T23:44:21.279Z,100539.32
2018-08-22T23:46:54.919Z,100531.97
2018-08-22T23:49:28.565Z,100535.63
2018-08-22T23:52:02.154Z,100532.98
2018-08-22T23:54:35.978Z,100535.94
2018-08-22T23:57:09.622Z,100530.77
2018-08-22T23:59:43.157Z,100531.23
